createdAt,value
2022-08-16T00:00:49.195Z,18.97
2022-08-16T00:01:49.269Z,19.01
2022-08-16T00:02:49.293Z,19.00
2022-08-16T00:03:49.259Z,18.92
2022-08-16T00:04:50.930Z,18.92
2022-08-16T00:05:49.304Z,18.98
2022-08-16T00:06:49.322Z,18.94
2022-08-16T00:07:49.344Z,18.92
2022-08-16T00:08:49.363Z,18.97
2022-08-16T00:09:49.385Z,18.92
2022-08-16T00:10:49.409Z,19.00
2022-08-16T00:11:52.623Z,18.94
2022-08-16T00:12:51.019Z,18.96
2022-08-16T00:13:54.293Z,18.97
2022-08-16T00:14:49.495Z,18.91
2022-08-16T00:15:51.442Z,18.91
2022-08-16T00:17:01.536Z,18.88
2022-08-16T00:17:56.812Z,18.92
2022-08-16T00:18:49.580Z,18.85
2022-08-16T00:19:53.602Z,18.88
2022-08-16T00:20:50.695Z,18.79
2022-08-16T00:21:52.210Z,18.79
2022-08-16T00:22:49.670Z,18.85
2022-08-16T00:23:49.693Z,18.86
2022-08-16T00:24:51.331Z,18.85
2022-08-16T00:26:36.515Z,18.88
2022-08-16T00:26:49.753Z,18.82
2022-08-16T00:27:49.778Z,18.86
2022-08-16T00:28:49.797Z,18.78
2022-08-16T00:30:00.676Z,18.78
2022-08-16T00:30:49.840Z,18.79
2022-08-16T00:31:59.904Z,18.82
2022-08-16T00:32:49.956Z,18.73
2022-08-16T00:33:50.044Z,18.78
2022-08-16T00:34:53.217Z,18.76
2022-08-16T00:35:49.950Z,18.71
2022-08-16T00:36:49.971Z,18.73
2022-08-16T00:37:56.998Z,18.85
2022-08-16T00:38:50.013Z,18.74
2022-08-16T00:39:57.130Z,18.79
2022-08-16T00:40:50.519Z,18.82
2022-08-16T00:41:50.076Z,18.73
2022-08-16T00:42:50.100Z,18.66
2022-08-16T00:43:50.120Z,18.73
2022-08-16T00:44:50.142Z,18.68
2022-08-16T00:46:00.105Z,18.73
2022-08-16T00:46:53.982Z,18.70
2022-08-16T00:47:50.207Z,18.63
2022-08-16T00:48:50.231Z,18.61
2022-08-16T00:49:56.747Z,18.63
2022-08-16T00:50:50.271Z,18.61
2022-08-16T00:51:55.210Z,18.64
2022-08-16T00:52:51.612Z,18.60
2022-08-16T00:53:50.337Z,18.67
2022-08-16T00:54:50.358Z,18.66
2022-08-16T00:55:50.377Z,18.67
2022-08-16T00:56:58.098Z,18.61
2022-08-16T00:58:00.145Z,18.61
2022-08-16T00:58:50.442Z,18.63
2022-08-16T00:59:54.775Z,18.61
2022-08-16T01:00:54.154Z,18.60
2022-08-16T01:01:50.507Z,18.60
2022-08-16T01:02:50.776Z,18.57
2022-08-16T01:03:50.548Z,18.61
2022-08-16T01:05:11.152Z,18.63
2022-08-16T01:05:50.592Z,18.49
2022-08-16T01:07:01.078Z,18.55
2022-08-16T01:07:53.240Z,18.53
2022-08-16T01:08:50.658Z,18.53
2022-08-16T01:09:50.678Z,18.55
2022-08-16T01:10:50.707Z,18.51
2022-08-16T01:11:54.151Z,18.53
2022-08-16T01:12:50.743Z,18.52
2022-08-16T01:13:50.762Z,18.55
2022-08-16T01:14:50.786Z,18.48
2022-08-16T01:15:52.581Z,18.52
2022-08-16T01:16:50.829Z,18.49
2022-08-16T01:17:56.041Z,18.55
2022-08-16T01:18:50.874Z,18.52
2022-08-16T01:19:50.892Z,18.48
2022-08-16T01:20:50.964Z,18.46
2022-08-16T01:21:50.954Z,18.57
2022-08-16T01:22:59.085Z,18.49
2022-08-16T01:23:58.438Z,18.48
2022-08-16T01:24:55.161Z,18.46
2022-08-16T01:26:00.407Z,18.48
2022-08-16T01:26:51.041Z,18.45
2022-08-16T01:27:51.067Z,18.48
2022-08-16T01:28:51.094Z,18.43
2022-08-16T01:29:57.853Z,18.48
2022-08-16T01:30:51.127Z,18.45
2022-08-16T01:31:51.149Z,18.41
2022-08-16T01:32:56.445Z,18.42
2022-08-16T01:33:51.192Z,18.42
2022-08-16T01:34:56.793Z,18.37
2022-08-16T01:35:52.714Z,18.36
2022-08-16T01:36:58.185Z,18.31
2022-08-16T01:37:53.100Z,18.36
2022-08-16T01:38:57.229Z,18.33
2022-08-16T01:39:51.365Z,18.37
2022-08-16T01:40:51.341Z,18.27
2022-08-16T01:41:51.367Z,18.33
2022-08-16T01:42:51.384Z,18.26
2022-08-16T01:43:53.571Z,18.33
2022-08-16T01:44:52.186Z,18.37
2022-08-16T01:45:57.492Z,18.34
2022-08-16T01:46:51.469Z,18.26
2022-08-16T01:47:51.880Z,18.28
2022-08-16T01:48:51.511Z,18.27
2022-08-16T01:50:42.742Z,18.27
2022-08-16T01:51:08.502Z,18.24
2022-08-16T01:51:51.573Z,18.27
2022-08-16T01:52:51.596Z,18.23
2022-08-16T01:53:54.691Z,18.18
2022-08-16T01:54:51.639Z,18.18
2022-08-16T01:55:54.205Z,18.13
2022-08-16T01:56:51.681Z,18.16
2022-08-16T01:57:53.296Z,18.15
2022-08-16T01:58:51.723Z,18.13
2022-08-16T01:59:54.483Z,18.12
2022-08-16T02:00:51.767Z,18.13
2022-08-16T02:01:52.852Z,18.16
2022-08-16T02:02:53.814Z,18.16
2022-08-16T02:03:52.036Z,18.16
2022-08-16T02:04:54.583Z,18.06
2022-08-16T02:05:52.243Z,18.16
2022-08-16T02:06:51.892Z,18.05
2022-08-16T02:07:53.491Z,18.09
2022-08-16T02:08:51.938Z,18.02
2022-08-16T02:09:57.207Z,18.02
2022-08-16T02:10:51.981Z,18.09
2022-08-16T02:11:52.802Z,18.05
2022-08-16T02:12:55.883Z,18.02
2022-08-16T02:13:54.830Z,18.06
2022-08-16T02:14:52.082Z,18.08
2022-08-16T02:15:52.084Z,18.02
2022-08-16T02:16:52.149Z,17.94
2022-08-16T02:17:52.566Z,17.94
2022-08-16T02:18:52.149Z,18.03
2022-08-16T02:19:59.359Z,18.05
2022-08-16T02:20:53.471Z,17.94
2022-08-16T02:22:08.182Z,17.94
2022-08-16T02:22:52.234Z,17.94
2022-08-16T02:23:55.693Z,17.94
2022-08-16T02:24:52.335Z,17.94
2022-08-16T02:25:54.072Z,17.91
2022-08-16T02:26:52.315Z,17.90
2022-08-16T02:27:52.345Z,17.91
2022-08-16T02:28:52.709Z,17.82
2022-08-16T02:29:52.378Z,17.87
2022-08-16T02:30:52.428Z,17.87
2022-08-16T02:32:04.427Z,17.91
2022-08-16T02:32:52.458Z,17.90
2022-08-16T02:33:52.463Z,17.91
2022-08-16T02:34:52.486Z,17.90
2022-08-16T02:35:55.238Z,17.87
2022-08-16T02:36:52.527Z,17.90
2022-08-16T02:37:53.490Z,17.87
2022-08-16T02:38:52.570Z,17.84
2022-08-16T02:39:53.757Z,17.84
2022-08-16T02:40:54.361Z,17.87
2022-08-16T02:41:53.314Z,17.86
2022-08-16T02:42:52.962Z,17.86
2022-08-16T02:43:52.676Z,17.86
2022-08-16T02:44:52.696Z,17.80
2022-08-16T02:45:52.716Z,17.80
2022-08-16T02:46:53.856Z,17.88
2022-08-16T02:48:01.547Z,17.86
2022-08-16T02:48:52.792Z,17.90
2022-08-16T02:50:34.348Z,17.80
2022-08-16T02:51:06.669Z,17.84
2022-08-16T02:51:52.843Z,17.79
2022-08-16T02:52:52.863Z,17.84
2022-08-16T02:53:52.971Z,17.88
2022-08-16T02:54:54.620Z,17.75
2022-08-16T02:55:52.930Z,17.82
2022-08-16T02:56:52.966Z,17.84
2022-08-16T02:57:53.976Z,17.78
2022-08-16T02:58:52.991Z,17.79
2022-08-16T02:59:53.023Z,17.86
2022-08-16T03:00:53.136Z,17.80
2022-08-16T03:01:53.119Z,17.76
2022-08-16T03:02:55.891Z,17.73
2022-08-16T03:04:29.257Z,17.76
2022-08-16T03:04:53.117Z,17.76
2022-08-16T03:05:53.421Z,17.79
2022-08-16T03:06:56.791Z,17.75
2022-08-16T03:07:53.178Z,17.72
2022-08-16T03:08:53.429Z,17.78
2022-08-16T03:09:53.221Z,17.73
2022-08-16T03:10:53.242Z,17.60
2022-08-16T03:11:53.263Z,17.71
2022-08-16T03:12:56.457Z,17.71
2022-08-16T03:13:53.304Z,17.66
2022-08-16T03:14:53.326Z,17.65
2022-08-16T03:15:53.346Z,17.66
2022-08-16T03:16:59.424Z,17.66
2022-08-16T03:17:54.164Z,17.60
2022-08-16T03:18:53.414Z,17.63
2022-08-16T03:19:59.792Z,17.57
2022-08-16T03:20:55.739Z,17.68
2022-08-16T03:21:53.471Z,17.60
2022-08-16T03:22:53.495Z,17.65
2022-08-16T03:23:53.514Z,17.52
2022-08-16T03:24:53.541Z,17.57
2022-08-16T03:25:53.555Z,17.52
2022-08-16T03:26:53.579Z,17.52
2022-08-16T03:27:53.598Z,17.56
2022-08-16T03:28:53.621Z,17.59
2022-08-16T03:29:54.669Z,17.63
2022-08-16T03:30:53.660Z,17.59
2022-08-16T03:31:53.682Z,17.57
2022-08-16T03:32:53.791Z,17.59
2022-08-16T03:33:53.725Z,17.66
2022-08-16T03:34:53.746Z,17.65
2022-08-16T03:35:57.208Z,17.59
2022-08-16T03:36:53.788Z,17.63
2022-08-16T03:38:03.319Z,17.57
2022-08-16T03:38:53.828Z,17.56
2022-08-16T03:39:56.499Z,17.57
2022-08-16T03:40:53.871Z,17.52
2022-08-16T03:41:59.599Z,17.53
2022-08-16T03:43:18.892Z,17.52
2022-08-16T03:43:53.933Z,17.54
2022-08-16T03:45:02.912Z,17.52
2022-08-16T03:45:53.974Z,17.53
2022-08-16T03:46:53.992Z,17.50
2022-08-16T03:47:59.762Z,17.54
2022-08-16T03:48:54.038Z,17.56
2022-08-16T03:49:54.058Z,17.56
2022-08-16T03:50:59.938Z,17.63
2022-08-16T03:51:54.099Z,17.56
2022-08-16T03:52:59.667Z,17.57
2022-08-16T03:53:57.774Z,17.57
2022-08-16T03:54:58.276Z,17.57
2022-08-16T03:55:54.183Z,17.60
2022-08-16T03:56:57.053Z,17.57
2022-08-16T03:57:54.226Z,17.57
2022-08-16T03:58:54.247Z,17.59
2022-08-16T03:59:54.267Z,17.53
2022-08-16T04:00:59.011Z,17.57
2022-08-16T04:01:54.316Z,17.54
2022-08-16T04:02:54.328Z,17.50
2022-08-16T04:03:55.222Z,17.50
2022-08-16T04:04:54.374Z,17.56
2022-08-16T04:05:54.391Z,17.50
2022-08-16T04:06:54.411Z,17.56
2022-08-16T04:07:54.433Z,17.52
2022-08-16T04:08:54.458Z,17.56
2022-08-16T04:09:54.473Z,17.56
2022-08-16T04:10:54.819Z,17.49
2022-08-16T04:11:54.516Z,17.41
2022-08-16T04:13:00.710Z,17.53
2022-08-16T04:14:01.681Z,17.50
2022-08-16T04:14:54.580Z,17.56
2022-08-16T04:15:54.600Z,17.53
2022-08-16T04:16:54.622Z,17.42
2022-08-16T04:17:54.647Z,17.60
2022-08-16T04:19:02.244Z,17.44
2022-08-16T04:19:58.282Z,17.56
2022-08-16T04:20:54.703Z,17.57
2022-08-16T04:21:56.798Z,17.56
2022-08-16T04:22:54.747Z,17.59
2022-08-16T04:23:54.915Z,17.60
2022-08-16T04:24:55.366Z,17.50
2022-08-16T04:25:54.808Z,17.60
2022-08-16T04:26:54.828Z,17.54
2022-08-16T04:27:56.022Z,17.53
2022-08-16T04:29:15.262Z,17.56
2022-08-16T04:29:54.906Z,17.47
2022-08-16T04:30:54.915Z,17.56
2022-08-16T04:31:56.530Z,17.53
2022-08-16T04:32:55.719Z,17.54
2022-08-16T04:33:54.981Z,17.56
2022-08-16T04:34:54.996Z,17.65
2022-08-16T04:35:55.018Z,17.56
2022-08-16T04:36:55.039Z,17.59
2022-08-16T04:37:55.062Z,17.59
2022-08-16T04:38:55.080Z,17.59
2022-08-16T04:39:55.430Z,17.59
2022-08-16T04:40:55.122Z,17.54
2022-08-16T04:41:56.808Z,17.56
2022-08-16T04:42:55.183Z,17.52
2022-08-16T04:43:55.253Z,17.56
2022-08-16T04:44:55.723Z,17.66
2022-08-16T04:46:00.711Z,17.69
2022-08-16T04:47:00.874Z,17.65
2022-08-16T04:47:55.965Z,17.65
2022-08-16T04:48:55.366Z,17.65
2022-08-16T04:49:55.313Z,17.65
2022-08-16T04:50:55.332Z,17.68
2022-08-16T04:51:55.557Z,17.60
2022-08-16T04:52:55.746Z,17.71
2022-08-16T04:53:55.399Z,17.78
2022-08-16T04:54:55.417Z,17.66
2022-08-16T04:55:55.439Z,17.72
2022-08-16T04:56:55.457Z,17.71
2022-08-16T04:57:55.478Z,17.69
2022-08-16T04:58:57.765Z,17.69
2022-08-16T04:59:55.525Z,17.78
2022-08-16T05:00:55.544Z,17.79
2022-08-16T05:01:58.720Z,17.79
2022-08-16T05:02:58.621Z,17.78
2022-08-16T05:03:59.767Z,17.80
2022-08-16T05:04:55.634Z,17.84
2022-08-16T05:06:04.783Z,17.87
2022-08-16T05:06:55.674Z,17.87
2022-08-16T05:07:59.715Z,17.87
2022-08-16T05:08:56.382Z,17.86
2022-08-16T05:09:55.736Z,17.90
2022-08-16T05:10:58.909Z,17.88
2022-08-16T05:11:57.391Z,17.86
2022-08-16T05:12:55.801Z,17.91
2022-08-16T05:13:55.820Z,17.91
2022-08-16T05:15:02.651Z,17.95
2022-08-16T05:15:55.862Z,18.02
2022-08-16T05:16:55.884Z,18.02
2022-08-16T05:17:59.016Z,18.02
2022-08-16T05:18:56.627Z,18.00
2022-08-16T05:19:57.537Z,18.09
2022-08-16T05:21:01.748Z,18.16
2022-08-16T05:21:55.995Z,18.11
2022-08-16T05:22:56.013Z,18.11
2022-08-16T05:24:00.074Z,18.12
2022-08-16T05:24:56.058Z,18.21
2022-08-16T05:25:56.077Z,18.28
2022-08-16T05:26:56.771Z,18.23
2022-08-16T05:27:56.556Z,18.34
2022-08-16T05:28:56.186Z,18.34
2022-08-16T05:30:00.097Z,18.31
2022-08-16T05:30:56.184Z,18.27
2022-08-16T05:31:56.208Z,18.36
2022-08-16T05:32:56.229Z,18.39
2022-08-16T05:33:56.250Z,18.42
2022-08-16T05:34:56.276Z,18.37
2022-08-16T05:35:56.293Z,18.43
2022-08-16T05:36:56.315Z,18.46
2022-08-16T05:37:56.333Z,18.48
2022-08-16T05:38:56.358Z,18.51
2022-08-16T05:39:56.399Z,18.53
2022-08-16T05:40:59.594Z,18.51
2022-08-16T05:41:56.424Z,18.58
2022-08-16T05:42:56.443Z,18.63
2022-08-16T05:43:59.191Z,18.64
2022-08-16T05:44:56.486Z,18.73
2022-08-16T05:45:56.509Z,18.63
2022-08-16T05:46:56.535Z,18.66
2022-08-16T05:48:00.127Z,18.70
2022-08-16T05:49:00.207Z,18.78
2022-08-16T05:49:56.597Z,18.79
2022-08-16T05:50:56.618Z,18.82
2022-08-16T05:51:56.639Z,18.74
2022-08-16T05:52:56.662Z,18.83
2022-08-16T05:53:56.682Z,18.86
2022-08-16T05:55:01.026Z,18.82
2022-08-16T05:55:56.729Z,18.89
2022-08-16T05:56:56.750Z,18.83
2022-08-16T05:57:56.772Z,18.91
2022-08-16T05:58:56.792Z,18.98
2022-08-16T05:59:59.556Z,18.96
2022-08-16T06:00:56.851Z,18.96
2022-08-16T06:01:56.917Z,19.09
2022-08-16T06:02:56.886Z,19.05
2022-08-16T06:03:56.908Z,19.12
2022-08-16T06:04:56.926Z,19.08
2022-08-16T06:05:56.948Z,19.15
2022-08-16T06:06:57.580Z,19.17
2022-08-16T06:07:59.063Z,19.16
2022-08-16T06:08:57.016Z,19.20
2022-08-16T06:09:57.036Z,19.27
2022-08-16T06:11:09.869Z,19.22
2022-08-16T06:11:57.082Z,19.23
2022-08-16T06:12:57.187Z,19.29
2022-08-16T06:13:57.124Z,19.35
2022-08-16T06:14:57.148Z,19.34
2022-08-16T06:15:57.170Z,19.41
2022-08-16T06:16:57.194Z,19.44
2022-08-16T06:17:57.213Z,19.38
2022-08-16T06:18:57.236Z,19.39
2022-08-16T06:19:57.258Z,19.42
2022-08-16T06:20:57.282Z,19.37
2022-08-16T06:21:57.302Z,19.45
2022-08-16T06:23:02.955Z,19.44
2022-08-16T06:23:57.345Z,19.41
2022-08-16T06:24:57.368Z,19.49
2022-08-16T06:25:57.396Z,19.60
2022-08-16T06:26:58.404Z,19.57
2022-08-16T06:27:58.215Z,19.63
2022-08-16T06:28:57.459Z,19.70
2022-08-16T06:29:57.482Z,19.70
2022-08-16T06:30:57.506Z,19.77
2022-08-16T06:31:57.526Z,19.85
2022-08-16T06:32:57.550Z,20.03
2022-08-16T06:33:57.570Z,20.14
2022-08-16T06:35:02.623Z,20.32
2022-08-16T06:35:59.668Z,20.46
2022-08-16T06:36:59.514Z,20.66
2022-08-16T06:37:57.663Z,20.80
2022-08-16T06:38:57.699Z,21.03
2022-08-16T06:39:57.753Z,21.13
2022-08-16T06:40:57.736Z,21.23
2022-08-16T06:41:57.758Z,21.38
2022-08-16T06:42:57.835Z,21.50
2022-08-16T06:43:57.806Z,21.66
2022-08-16T06:44:57.833Z,21.69
2022-08-16T06:45:57.854Z,21.88
2022-08-16T06:46:57.879Z,21.92
2022-08-16T06:47:57.905Z,22.07
2022-08-16T06:48:57.929Z,22.08
2022-08-16T06:49:57.989Z,22.23
2022-08-16T06:50:57.979Z,22.31
2022-08-16T06:52:02.895Z,22.34
2022-08-16T06:53:00.413Z,22.52
2022-08-16T06:53:58.053Z,22.53
2022-08-16T06:54:58.080Z,22.55
2022-08-16T06:55:58.107Z,22.78
2022-08-16T06:56:58.130Z,22.77
2022-08-16T06:57:58.155Z,22.77
2022-08-16T06:58:58.182Z,22.95
2022-08-16T06:59:58.607Z,23.06
2022-08-16T07:00:59.675Z,23.20
2022-08-16T07:01:58.789Z,23.18
2022-08-16T07:02:58.443Z,23.34
2022-08-16T07:03:58.309Z,23.48
2022-08-16T07:04:58.337Z,23.48
2022-08-16T07:05:58.360Z,23.59
2022-08-16T07:06:58.395Z,23.74
2022-08-16T07:07:58.414Z,23.73
2022-08-16T07:08:58.442Z,23.85
2022-08-16T07:09:58.467Z,23.84
2022-08-16T07:10:58.496Z,24.07
2022-08-16T07:12:03.272Z,24.09
2022-08-16T07:13:03.287Z,24.10
2022-08-16T07:14:22.910Z,24.11
2022-08-16T07:15:00.730Z,24.24
2022-08-16T07:15:58.627Z,24.38
2022-08-16T07:16:59.363Z,24.51
2022-08-16T07:17:58.683Z,24.53
2022-08-16T07:19:01.959Z,24.51
2022-08-16T07:20:03.012Z,24.63
2022-08-16T07:21:01.747Z,24.66
2022-08-16T07:21:59.924Z,24.82
2022-08-16T07:22:59.298Z,24.84
2022-08-16T07:24:06.040Z,24.59
2022-08-16T07:24:58.870Z,24.75
2022-08-16T07:25:58.985Z,24.68
2022-08-16T07:26:58.926Z,24.75
2022-08-16T07:27:59.299Z,24.89
2022-08-16T07:28:58.983Z,25.03
2022-08-16T07:29:59.008Z,25.00
2022-08-16T07:30:59.037Z,25.12
2022-08-16T07:31:59.062Z,25.14
2022-08-16T07:32:59.091Z,25.18
2022-08-16T07:33:59.118Z,25.31
2022-08-16T07:34:59.146Z,25.40
2022-08-16T07:35:59.175Z,25.29
2022-08-16T07:36:59.202Z,25.40
2022-08-16T07:37:59.229Z,25.58
2022-08-16T07:38:59.258Z,25.61
2022-08-16T07:39:59.303Z,25.67
2022-08-16T07:41:01.353Z,25.68
2022-08-16T07:41:59.339Z,25.58
2022-08-16T07:42:59.370Z,25.74
2022-08-16T07:43:59.591Z,25.76
2022-08-16T07:44:59.429Z,25.78
2022-08-16T07:45:59.459Z,25.80
2022-08-16T07:46:59.484Z,25.83
2022-08-16T07:47:59.514Z,25.78
2022-08-16T07:49:02.260Z,25.83
2022-08-16T07:49:59.569Z,25.81
2022-08-16T07:51:00.968Z,25.92
2022-08-16T07:51:59.626Z,25.95
2022-08-16T07:53:00.160Z,25.96
2022-08-16T07:54:02.695Z,25.98
2022-08-16T07:54:59.711Z,26.07
2022-08-16T07:55:59.743Z,26.07
2022-08-16T07:56:59.770Z,26.11
2022-08-16T07:58:03.291Z,26.22
2022-08-16T07:58:59.829Z,26.22
2022-08-16T07:59:59.856Z,26.29
2022-08-16T08:00:59.950Z,26.23
2022-08-16T08:01:59.914Z,26.30
2022-08-16T08:02:59.941Z,26.34
2022-08-16T08:03:59.972Z,26.26
2022-08-16T08:05:00.004Z,26.37
2022-08-16T08:06:00.029Z,26.37
2022-08-16T08:07:00.060Z,26.36
2022-08-16T08:08:00.093Z,26.49
2022-08-16T08:09:00.138Z,26.37
2022-08-16T08:10:00.159Z,26.48
2022-08-16T08:11:08.847Z,26.51
2022-08-16T08:12:05.290Z,26.52
2022-08-16T08:13:00.235Z,26.39
2022-08-16T08:14:03.231Z,26.30
2022-08-16T08:15:00.620Z,26.31
2022-08-16T08:16:00.324Z,26.26
2022-08-16T08:17:01.512Z,26.24
2022-08-16T08:18:20.961Z,26.03
2022-08-16T08:19:00.953Z,26.03
2022-08-16T08:20:00.438Z,25.88
2022-08-16T08:21:00.467Z,25.81
2022-08-16T08:22:02.504Z,25.74
2022-08-16T08:23:01.225Z,25.63
2022-08-16T08:24:00.553Z,25.52
2022-08-16T08:25:03.613Z,25.43
2022-08-16T08:26:00.612Z,25.44
2022-08-16T08:27:00.638Z,25.31
2022-08-16T08:28:00.664Z,25.33
2022-08-16T08:29:01.170Z,25.19
2022-08-16T08:30:49.331Z,25.24
2022-08-16T08:31:02.727Z,25.18
2022-08-16T08:32:00.773Z,25.03
2022-08-16T08:33:01.055Z,25.12
2022-08-16T08:34:00.828Z,24.93
2022-08-16T08:35:03.637Z,24.85
2022-08-16T08:36:01.282Z,24.84
2022-08-16T08:37:00.906Z,24.74
2022-08-16T08:38:00.931Z,24.77
2022-08-16T08:39:00.959Z,24.74
2022-08-16T08:40:01.027Z,24.66
2022-08-16T08:41:01.017Z,24.74
2022-08-16T08:42:01.043Z,24.68
2022-08-16T08:43:12.546Z,24.78
2022-08-16T08:44:01.091Z,24.75
2022-08-16T08:45:01.120Z,24.69
2022-08-16T08:46:01.142Z,24.62
2022-08-16T08:47:01.868Z,24.63
2022-08-16T08:48:01.198Z,24.50
2022-08-16T08:49:02.400Z,24.46
2022-08-16T08:50:01.250Z,24.44
2022-08-16T08:51:01.275Z,24.41
2022-08-16T08:52:01.298Z,24.56
2022-08-16T08:53:01.324Z,24.59
2022-08-16T08:54:01.349Z,24.56
2022-08-16T08:55:01.373Z,24.53
2022-08-16T08:56:01.404Z,24.53
2022-08-16T08:57:01.427Z,24.58
2022-08-16T08:58:01.452Z,24.56
2022-08-16T08:59:04.739Z,24.53
2022-08-16T09:00:01.504Z,24.56
2022-08-16T09:01:01.773Z,24.53
2022-08-16T09:02:01.554Z,24.62
2022-08-16T09:03:04.467Z,24.59
2022-08-16T09:04:01.642Z,24.56
2022-08-16T09:05:01.632Z,24.43
2022-08-16T09:06:01.661Z,24.43
2022-08-16T09:07:01.774Z,24.43
2022-08-16T09:08:05.771Z,24.59
2022-08-16T09:09:01.736Z,24.55
2022-08-16T09:10:06.628Z,24.47
2022-08-16T09:11:02.206Z,24.53
2022-08-16T09:12:06.288Z,24.62
2022-08-16T09:13:01.838Z,24.62
2022-08-16T09:14:01.864Z,24.62
2022-08-16T09:15:01.890Z,24.61
2022-08-16T09:16:01.914Z,24.66
2022-08-16T09:17:14.230Z,24.63
2022-08-16T09:18:25.494Z,24.58
2022-08-16T09:19:03.874Z,24.71
2022-08-16T09:20:04.782Z,24.75
2022-08-16T09:21:02.085Z,24.71
2022-08-16T09:22:02.131Z,24.79
2022-08-16T09:23:02.092Z,24.78
2022-08-16T09:24:02.122Z,24.78
2022-08-16T09:25:09.754Z,24.79
2022-08-16T09:26:02.170Z,24.79
2022-08-16T09:27:02.198Z,24.88
2022-08-16T09:28:08.707Z,24.93
2022-08-16T09:29:15.961Z,24.94
2022-08-16T09:30:31.563Z,25.01
2022-08-16T09:31:02.300Z,24.99
2022-08-16T09:32:02.326Z,25.04
2022-08-16T09:33:02.353Z,24.96
2022-08-16T09:34:02.376Z,25.09
2022-08-16T09:35:02.405Z,25.09
2022-08-16T09:36:02.428Z,25.09
2022-08-16T09:37:02.454Z,25.09
2022-08-16T09:38:02.479Z,24.97
2022-08-16T09:39:02.606Z,25.07
2022-08-16T09:40:02.571Z,25.14
2022-08-16T09:41:02.561Z,25.11
2022-08-16T09:42:02.587Z,25.16
2022-08-16T09:43:02.719Z,25.18
2022-08-16T09:45:12.315Z,25.19
2022-08-16T09:45:12.781Z,25.19
2022-08-16T09:46:02.779Z,25.33
2022-08-16T09:47:02.714Z,25.33
2022-08-16T09:48:02.744Z,25.33
2022-08-16T09:49:03.637Z,25.31
2022-08-16T09:50:02.792Z,25.30
2022-08-16T09:51:02.818Z,25.39
2022-08-16T09:52:02.844Z,25.41
2022-08-16T09:53:02.870Z,25.43
2022-08-16T09:54:02.894Z,25.40
2022-08-16T09:55:02.924Z,25.43
2022-08-16T09:56:02.950Z,25.41
2022-08-16T09:57:03.060Z,25.46
2022-08-16T09:58:03.004Z,25.56
2022-08-16T09:59:05.670Z,25.52
2022-08-16T10:00:03.055Z,25.54
2022-08-16T10:01:03.081Z,25.62
2022-08-16T10:02:26.654Z,25.59
2022-08-16T10:03:03.163Z,25.54
2022-08-16T10:04:04.194Z,25.71
2022-08-16T10:05:03.223Z,25.74
2022-08-16T10:06:03.214Z,25.74
2022-08-16T10:07:15.493Z,25.86
2022-08-16T10:08:26.320Z,25.93
2022-08-16T10:09:05.883Z,25.88
2022-08-16T10:10:03.321Z,25.99
2022-08-16T10:11:03.346Z,25.95
2022-08-16T10:12:11.108Z,26.13
2022-08-16T10:13:03.400Z,26.24
2022-08-16T10:14:03.427Z,26.30
2022-08-16T10:15:03.456Z,26.36
2022-08-16T10:16:03.525Z,26.41
2022-08-16T10:17:03.511Z,26.46
2022-08-16T10:18:56.401Z,26.53
2022-08-16T10:19:06.255Z,26.53
2022-08-16T10:20:03.596Z,26.59
2022-08-16T10:21:03.624Z,26.63
2022-08-16T10:22:05.084Z,26.91
2022-08-16T10:23:07.191Z,26.98
2022-08-16T10:24:03.725Z,27.20
2022-08-16T10:25:03.739Z,27.25
2022-08-16T10:27:17.378Z,27.40
2022-08-16T10:27:25.758Z,27.61
2022-08-16T10:28:26.159Z,27.64
2022-08-16T10:29:04.755Z,27.86
2022-08-16T10:30:06.834Z,28.03
2022-08-16T10:31:04.303Z,28.19
2022-08-16T10:32:03.955Z,28.23
2022-08-16T10:33:03.987Z,28.43
2022-08-16T10:34:04.017Z,28.49
2022-08-16T10:35:04.048Z,28.80
2022-08-16T10:36:04.367Z,29.03
2022-08-16T10:37:04.121Z,29.31
2022-08-16T10:38:06.364Z,29.53
2022-08-16T10:39:04.341Z,29.80
2022-08-16T10:40:04.262Z,29.89
2022-08-16T10:41:04.246Z,30.29
2022-08-16T10:42:04.287Z,30.40
2022-08-16T10:43:04.316Z,30.55
2022-08-16T10:44:04.359Z,30.70
2022-08-16T10:45:04.386Z,30.85
2022-08-16T10:46:33.685Z,30.91
2022-08-16T10:47:04.453Z,31.10
2022-08-16T10:48:04.675Z,31.08
2022-08-16T10:49:05.136Z,31.18
2022-08-16T10:50:04.560Z,31.42
2022-08-16T10:51:05.443Z,31.63
2022-08-16T10:52:18.739Z,31.86
2022-08-16T10:53:05.782Z,32.02
2022-08-16T10:54:04.897Z,32.15
2022-08-16T10:56:06.419Z,32.63
2022-08-16T10:57:04.807Z,32.64
2022-08-16T10:58:11.699Z,32.67
2022-08-16T11:00:04.913Z,32.90
2022-08-16T11:03:05.187Z,32.67
2022-08-16T11:05:04.881Z,32.68
2022-08-16T11:05:06.358Z,32.61
2022-08-16T11:06:06.538Z,32.57
2022-08-16T11:07:08.664Z,32.64
2022-08-16T11:08:06.960Z,32.72
2022-08-16T11:09:25.786Z,32.66
2022-08-16T11:10:21.254Z,32.66
2022-08-16T11:11:12.751Z,32.67
2022-08-16T11:12:13.615Z,32.78
2022-08-16T11:14:06.187Z,33.17
2022-08-16T11:15:13.351Z,33.31
2022-08-16T11:17:10.745Z,33.60
2022-08-16T11:19:13.225Z,33.98
2022-08-16T11:21:05.651Z,34.28
2022-08-16T11:22:22.971Z,34.43
2022-08-16T11:23:05.726Z,34.69
2022-08-16T11:24:39.219Z,34.62
2022-08-16T11:25:16.213Z,34.81
2022-08-16T11:26:23.929Z,35.00
2022-08-16T11:27:23.579Z,35.20
2022-08-16T11:28:05.904Z,35.23
2022-08-16T11:29:13.862Z,35.32
2022-08-16T11:30:09.240Z,35.50
2022-08-16T11:31:06.014Z,35.61
2022-08-16T11:32:06.056Z,35.57
2022-08-16T11:33:06.090Z,35.64
2022-08-16T11:34:06.126Z,35.50
2022-08-16T11:35:11.264Z,35.44
2022-08-16T11:37:06.235Z,35.20
2022-08-16T11:38:46.798Z,35.16
2022-08-16T11:39:06.446Z,35.07
2022-08-16T11:40:06.437Z,34.94
2022-08-16T11:41:06.818Z,34.78
2022-08-16T11:42:23.123Z,34.62
2022-08-16T11:43:06.448Z,34.56
2022-08-16T11:44:06.485Z,34.44
2022-08-16T11:45:06.520Z,34.09
2022-08-16T11:46:43.764Z,33.87
2022-08-16T11:47:06.587Z,33.72
2022-08-16T11:48:06.624Z,33.55
2022-08-16T11:49:11.261Z,33.31
2022-08-16T11:50:06.692Z,33.17
2022-08-16T11:51:06.727Z,33.04
2022-08-16T11:52:06.753Z,32.90
2022-08-16T11:53:08.321Z,32.88
2022-08-16T11:54:06.817Z,32.83
2022-08-16T11:55:06.850Z,33.03
2022-08-16T11:56:06.883Z,33.22
2022-08-16T11:57:09.283Z,33.42
2022-08-16T11:58:06.948Z,33.70
2022-08-16T11:59:06.984Z,33.95
2022-08-16T12:00:07.256Z,34.11
2022-08-16T12:01:07.050Z,34.40
2022-08-16T12:02:31.318Z,34.59
2022-08-16T12:03:07.120Z,34.66
2022-08-16T12:04:07.174Z,34.75
2022-08-16T12:05:07.188Z,34.75
2022-08-16T12:06:07.223Z,34.79
2022-08-16T12:07:07.259Z,34.71
2022-08-16T12:08:07.295Z,34.81
2022-08-16T12:09:07.336Z,34.83
2022-08-16T12:10:07.362Z,34.71
2022-08-16T12:11:07.398Z,34.82
2022-08-16T12:12:07.434Z,34.79
2022-08-16T12:13:07.463Z,34.82
2022-08-16T12:14:07.502Z,34.86
2022-08-16T12:15:07.534Z,34.97
2022-08-16T12:16:07.569Z,34.97
2022-08-16T12:17:08.112Z,34.98
2022-08-16T12:18:07.639Z,35.03
2022-08-16T12:19:10.721Z,35.07
2022-08-16T12:20:08.176Z,35.08
2022-08-16T12:21:07.743Z,35.12
2022-08-16T12:22:19.230Z,34.97
2022-08-16T12:23:07.813Z,34.88
2022-08-16T12:24:07.848Z,34.89
2022-08-16T12:25:07.882Z,34.82
2022-08-16T12:26:10.355Z,34.79
2022-08-16T12:27:08.326Z,34.73
2022-08-16T12:28:07.989Z,34.62
2022-08-16T12:29:08.022Z,34.53
2022-08-16T12:30:08.054Z,34.43
2022-08-16T12:31:08.089Z,34.26
2022-08-16T12:32:26.784Z,34.04
2022-08-16T12:33:08.158Z,33.95
2022-08-16T12:34:08.189Z,33.85
2022-08-16T12:35:08.222Z,33.77
2022-08-16T12:36:09.976Z,33.61
2022-08-16T12:37:11.703Z,33.48
2022-08-16T12:38:10.345Z,33.16
2022-08-16T12:39:08.354Z,33.03
2022-08-16T12:40:08.427Z,32.93
2022-08-16T12:41:08.419Z,32.72
2022-08-16T12:42:08.450Z,32.64
2022-08-16T12:43:08.482Z,32.54
2022-08-16T12:44:08.513Z,32.30
2022-08-16T12:45:08.543Z,32.27
2022-08-16T12:46:08.689Z,32.29
2022-08-16T12:47:08.609Z,32.27
2022-08-16T12:48:31.388Z,32.39
2022-08-16T12:49:08.671Z,32.59
2022-08-16T12:50:14.690Z,32.86
2022-08-16T12:51:20.055Z,33.13
2022-08-16T12:52:08.768Z,33.40
2022-08-16T12:53:09.550Z,33.75
2022-08-16T12:54:08.829Z,33.88
2022-08-16T12:55:08.862Z,33.98
2022-08-16T12:56:08.896Z,34.07
2022-08-16T12:57:14.181Z,34.13
2022-08-16T12:58:13.718Z,34.09
2022-08-16T12:59:08.995Z,34.02
2022-08-16T13:00:09.029Z,34.02
2022-08-16T13:01:09.453Z,33.97
2022-08-16T13:02:12.553Z,33.94